createdAt,value
2018-11-05T00:00:46.018Z,27.37
2018-11-05T00:03:15.109Z,29.23
2018-11-05T00:05:44.938Z,27.03
2018-11-05T00:08:13.855Z,28.60
2018-11-05T00:10:42.857Z,29.77
2018-11-05T00:13:11.788Z,28.80
2018-11-05T00:15:40.637Z,30.07
2018-11-05T00:18:09.667Z,28.63
2018-11-05T00:20:38.525Z,29.70
2018-11-05T00:23:07.577Z,30.97
2018-11-05T00:25:36.453Z,30.67
2018-11-05T00:28:05.716Z,28.70
2018-11-05T00:30:34.623Z,28.80
2018-11-05T00:33:03.606Z,30.13
2018-11-05T00:35:32.487Z,29.40
2018-11-05T00:38:01.308Z,30.10
2018-11-05T00:40:30.206Z,29.33
2018-11-05T00:42:59.025Z,30.20
2018-11-05T00:45:27.904Z,29.97
2018-11-05T00:47:56.930Z,30.03
2018-11-05T00:50:25.862Z,29.43
2018-11-05T00:52:54.722Z,30.60
2018-11-05T00:55:23.972Z,30.73
2018-11-05T00:57:52.754Z,28.97
2018-11-05T01:00:21.691Z,30.47
2018-11-05T01:02:50.845Z,29.77
2018-11-05T01:05:19.723Z,31.30
2018-11-05T01:07:48.592Z,30.87
2018-11-05T01:10:17.458Z,34.23
2018-11-05T01:12:46.335Z,30.40
2018-11-05T01:15:16.421Z,30.20
2018-11-05T01:17:45.369Z,32.67
2018-11-05T01:20:15.380Z,31.00
2018-11-05T01:22:44.285Z,30.40
2018-11-05T01:25:14.129Z,31.53
2018-11-05T01:27:42.971Z,31.53
2018-11-05T01:30:13.170Z,30.83
2018-11-05T01:32:42.052Z,29.83
2018-11-05T01:35:12.175Z,30.37
2018-11-05T01:37:41.216Z,29.63
2018-11-05T01:40:13.524Z,32.30
2018-11-05T01:42:42.484Z,32.90
2018-11-05T01:45:12.505Z,29.70
2018-11-05T01:47:42.155Z,29.73
2018-11-05T01:50:13.460Z,31.27
2018-11-05T01:52:42.910Z,31.10
2018-11-05T01:55:11.865Z,32.70
2018-11-05T01:57:41.282Z,29.93
2018-11-05T02:00:13.607Z,33.20
2018-11-05T02:02:43.071Z,31.67
2018-11-05T02:05:11.935Z,30.97
2018-11-05T02:07:42.100Z,31.63
2018-11-05T02:10:13.343Z,31.23
2018-11-05T02:12:42.285Z,31.93
2018-11-05T02:15:11.813Z,31.33
2018-11-05T02:17:42.307Z,32.27
2018-11-05T02:20:12.017Z,30.60
2018-11-05T02:22:40.946Z,29.93
2018-11-05T02:25:11.065Z,30.43
2018-11-05T02:27:40.422Z,30.10
2018-11-05T02:30:13.635Z,30.97
2018-11-05T02:32:42.555Z,29.77
2018-11-05T02:35:12.766Z,30.00
2018-11-05T02:37:43.007Z,31.40
2018-11-05T02:40:13.933Z,29.70
2018-11-05T02:42:43.609Z,29.90
2018-11-05T02:45:14.445Z,31.47
2018-11-05T02:47:43.434Z,30.30
2018-11-05T02:50:13.573Z,28.77
2018-11-05T02:52:43.421Z,31.03
2018-11-05T02:55:12.352Z,29.17
2018-11-05T02:57:41.243Z,30.23
2018-11-05T03:00:14.532Z,28.67
2018-11-05T03:02:43.605Z,28.50
2018-11-05T03:05:14.477Z,26.60
2018-11-05T03:07:44.262Z,27.00
2018-11-05T03:10:13.701Z,25.83
2018-11-05T03:12:43.276Z,27.23
2018-11-05T03:15:13.432Z,25.80
2018-11-05T03:17:42.425Z,24.93
2018-11-05T03:20:12.908Z,25.60
2018-11-05T03:22:42.610Z,25.53
2018-11-05T03:25:11.596Z,24.97
2018-11-05T03:27:41.146Z,24.77
2018-11-05T03:30:17.664Z,24.23
2018-11-05T03:32:46.974Z,23.67
2018-11-05T03:35:15.960Z,24.53
2018-11-05T03:37:45.715Z,24.33
2018-11-05T03:40:14.937Z,25.70
2018-11-05T03:42:44.065Z,24.23
2018-11-05T03:45:14.132Z,24.03
2018-11-05T03:47:43.325Z,25.47
2018-11-05T03:50:14.476Z,24.83
2018-11-05T03:52:44.168Z,25.33
2018-11-05T03:55:14.037Z,28.53
2018-11-05T03:57:43.056Z,28.63
2018-11-05T04:00:14.938Z,29.10
2018-11-05T04:02:44.333Z,28.57
2018-11-05T04:05:13.259Z,28.07
2018-11-05T04:07:42.268Z,27.07
2018-11-05T04:10:12.334Z,27.97
2018-11-05T04:12:41.254Z,27.93
2018-11-05T04:15:10.723Z,27.93
2018-11-05T04:17:39.618Z,28.83
2018-11-05T04:20:11.183Z,29.10
2018-11-05T04:22:40.511Z,29.63
2018-11-05T04:25:09.397Z,29.00
2018-11-05T04:27:38.327Z,28.17
2018-11-05T04:30:10.983Z,26.10
2018-11-05T04:32:40.174Z,28.37
2018-11-05T04:35:09.641Z,29.10
2018-11-05T04:37:38.580Z,28.77
2018-11-05T04:40:09.023Z,27.97
2018-11-05T04:42:37.908Z,29.30
2018-11-05T04:45:13.403Z,27.73
2018-11-05T04:47:43.018Z,26.03
2018-11-05T04:50:12.990Z,27.17
2018-11-05T04:52:42.792Z,27.03
2018-11-05T04:55:11.737Z,27.37
2018-11-05T04:57:40.639Z,26.60
2018-11-05T05:00:14.580Z,28.33
2018-11-05T05:02:43.645Z,27.00
2018-11-05T05:05:13.656Z,28.47
2018-11-05T05:07:43.042Z,29.13
2018-11-05T05:10:12.020Z,28.53
2018-11-05T05:12:41.770Z,28.93
2018-11-05T05:15:11.169Z,29.17
2018-11-05T05:17:40.623Z,29.97
2018-11-05T05:20:12.497Z,30.43
2018-11-05T05:22:42.244Z,30.37
2018-11-05T05:25:11.026Z,30.03
2018-11-05T05:27:40.050Z,32.30
2018-11-05T05:30:14.095Z,32.17
2018-11-05T05:32:43.648Z,30.63
2018-11-05T05:35:12.570Z,33.17
2018-11-05T05:37:41.860Z,32.23
2018-11-05T05:40:11.177Z,33.70
2018-11-05T05:42:40.363Z,34.10
2018-11-05T05:45:10.592Z,33.23
2018-11-05T05:47:39.691Z,33.77
2018-11-05T05:50:12.304Z,36.20
2018-11-05T05:52:42.205Z,35.27
2018-11-05T05:55:11.258Z,36.43
2018-11-05T05:57:40.117Z,38.57
2018-11-05T06:00:11.859Z,36.90
2018-11-05T06:02:40.680Z,36.80
2018-11-05T06:05:11.900Z,35.10
2018-11-05T06:07:41.280Z,34.47
2018-11-05T06:10:12.103Z,35.33
2018-11-05T06:12:41.004Z,35.63
2018-11-05T06:15:12.386Z,35.63
2018-11-05T06:17:41.815Z,34.20
2018-11-05T06:20:16.735Z,37.77
2018-11-05T06:22:46.458Z,35.77
2018-11-05T06:25:15.715Z,34.43
2018-11-05T06:27:44.715Z,34.80
2018-11-05T06:30:17.000Z,35.17
2018-11-05T06:32:46.758Z,34.50
2018-11-05T06:35:15.699Z,34.40
2018-11-05T06:37:44.653Z,34.13
2018-11-05T06:40:16.051Z,34.90
2018-11-05T06:42:45.388Z,36.57
2018-11-05T06:45:16.568Z,34.07
2018-11-05T06:47:46.464Z,34.03
2018-11-05T06:50:18.315Z,34.53
2018-11-05T06:52:47.217Z,33.23
2018-11-05T06:55:16.315Z,35.20
2018-11-05T06:57:45.301Z,34.73
2018-11-05T07:00:17.498Z,33.53
2018-11-05T07:02:46.598Z,35.93
2018-11-05T07:05:15.680Z,32.93
2018-11-05T07:07:44.593Z,37.47
2018-11-05T07:10:14.734Z,33.03
2018-11-05T07:12:44.289Z,32.67
2018-11-05T07:15:14.557Z,32.63
2018-11-05T07:17:44.640Z,33.53
2018-11-05T07:20:16.176Z,32.37
2018-11-05T07:22:45.743Z,32.13
2018-11-05T07:25:15.408Z,33.50
2018-11-05T07:27:44.371Z,32.50
2018-11-05T07:30:16.635Z,32.37
2018-11-05T07:32:46.135Z,32.67
2018-11-05T07:35:15.568Z,32.60
2018-11-05T07:37:44.472Z,32.10
2018-11-05T07:40:14.873Z,35.37
2018-11-05T07:42:43.793Z,34.67
2018-11-05T07:45:17.661Z,34.53
2018-11-05T07:47:46.983Z,33.40
2018-11-05T07:50:16.980Z,34.63
2018-11-05T07:52:45.769Z,34.40
2018-11-05T07:55:15.922Z,33.03
2018-11-05T07:57:45.688Z,35.77
2018-11-05T08:00:21.354Z,33.23
2018-11-05T08:02:52.197Z,35.40
2018-11-05T08:05:21.805Z,35.37
2018-11-05T08:07:50.820Z,33.97
2018-11-05T08:10:19.814Z,36.40
2018-11-05T08:12:48.833Z,34.63
2018-11-05T08:15:19.826Z,32.43
2018-11-05T08:17:49.616Z,32.40
2018-11-05T08:20:18.532Z,32.20
2018-11-05T08:22:47.496Z,32.77
2018-11-05T08:25:16.972Z,32.43
2018-11-05T08:27:45.890Z,32.47
2018-11-05T08:30:19.012Z,31.13
2018-11-05T08:32:47.964Z,30.57
2018-11-05T08:35:16.882Z,33.23
2018-11-05T08:37:46.651Z,31.23
2018-11-05T08:40:18.240Z,30.90
2018-11-05T08:42:48.102Z,30.53
2018-11-05T08:45:24.213Z,30.30
2018-11-05T08:47:53.105Z,31.37
2018-11-05T08:50:22.866Z,32.90
2018-11-05T08:52:51.681Z,30.50
2018-11-05T08:55:23.713Z,29.80
2018-11-05T08:57:52.590Z,31.03
2018-11-05T09:00:27.477Z,30.63
2018-11-05T09:02:56.382Z,30.93
2018-11-05T09:05:25.331Z,30.50
2018-11-05T09:07:54.939Z,30.40
2018-11-05T09:10:23.969Z,30.63
2018-11-05T09:12:52.806Z,29.87
2018-11-05T09:15:22.315Z,29.83
2018-11-05T09:17:51.644Z,30.23
2018-11-05T09:20:20.889Z,29.00
2018-11-05T09:22:50.535Z,28.73
2018-11-05T09:25:19.458Z,29.90
2018-11-05T09:27:48.441Z,30.07
2018-11-05T09:30:18.785Z,29.63
2018-11-05T09:32:47.752Z,28.50
2018-11-05T09:35:16.740Z,30.67
2018-11-05T09:37:45.753Z,30.47
2018-11-05T09:40:19.300Z,29.00
2018-11-05T09:42:48.673Z,29.03
2018-11-05T09:45:24.997Z,30.73
2018-11-05T09:47:53.915Z,29.63
2018-11-05T09:50:23.082Z,30.20
2018-11-05T09:52:52.085Z,29.67
2018-11-05T09:55:21.029Z,30.50
2018-11-05T09:57:49.944Z,29.37
2018-11-05T10:00:20.443Z,28.10
2018-11-05T10:02:54.795Z,28.73
2018-11-05T10:05:23.763Z,29.60
2018-11-05T10:07:52.637Z,29.30
2018-11-05T10:10:21.618Z,28.87
2018-11-05T10:12:50.480Z,30.30
2018-11-05T10:15:19.462Z,30.77
2018-11-05T10:17:48.439Z,29.57
2018-11-05T10:20:19.447Z,30.50
2018-11-05T10:22:48.351Z,29.60
2018-11-05T10:25:17.510Z,30.43
2018-11-05T10:27:47.210Z,29.37
2018-11-05T10:30:19.186Z,29.33
2018-11-05T10:32:48.079Z,30.10
2018-11-05T10:35:17.741Z,29.20
2018-11-05T10:37:46.712Z,30.90
2018-11-05T10:40:17.957Z,30.00
2018-11-05T10:42:47.294Z,29.77
2018-11-05T10:45:17.310Z,29.90
2018-11-05T10:47:46.208Z,30.17
2018-11-05T10:50:16.116Z,29.40
2018-11-05T10:52:46.422Z,29.40
2018-11-05T10:55:15.552Z,30.27
2018-11-05T10:57:44.830Z,27.93
2018-11-05T11:00:25.631Z,30.00
2018-11-05T11:03:00.045Z,31.07
2018-11-05T11:05:30.139Z,32.40
2018-11-05T11:07:59.982Z,30.70
2018-11-05T11:10:29.497Z,31.87
2018-11-05T11:12:58.815Z,31.53
2018-11-05T11:15:27.724Z,30.50
2018-11-05T11:17:57.133Z,32.37
2018-11-05T11:20:26.071Z,30.83
2018-11-05T11:22:54.952Z,31.13
2018-11-05T11:25:23.883Z,30.20
2018-11-05T11:27:52.882Z,32.07
2018-11-05T11:30:21.917Z,33.33
2018-11-05T11:32:51.714Z,33.20
2018-11-05T11:35:20.888Z,32.60
2018-11-05T11:37:50.110Z,31.73
2018-11-05T11:40:20.498Z,32.23
2018-11-05T11:42:49.916Z,35.27
2018-11-05T11:45:24.242Z,30.57
2018-11-05T11:47:53.145Z,32.80
2018-11-05T11:50:22.138Z,29.37
2018-11-05T11:52:51.222Z,29.40
2018-11-05T11:55:21.405Z,32.07
2018-11-05T11:57:50.357Z,30.83
2018-11-05T12:00:24.170Z,29.07
2018-11-05T12:02:53.670Z,30.10
2018-11-05T12:05:22.763Z,29.97
2018-11-05T12:07:51.531Z,31.20
2018-11-05T12:10:23.367Z,29.17
2018-11-05T12:12:52.445Z,30.53
2018-11-05T12:15:22.131Z,29.13
2018-11-05T12:17:51.992Z,30.47
2018-11-05T12:20:22.143Z,29.20
2018-11-05T12:22:51.524Z,28.70
2018-11-05T12:25:20.545Z,28.60
2018-11-05T12:27:49.755Z,30.70
2018-11-05T12:30:22.958Z,29.70
2018-11-05T12:32:53.047Z,28.27
2018-11-05T12:35:22.057Z,28.33
2018-11-05T12:37:52.052Z,30.53
2018-11-05T12:40:21.804Z,29.87
2018-11-05T12:42:51.446Z,28.57
2018-11-05T12:45:26.646Z,29.27
2018-11-05T12:47:55.637Z,30.30
2018-11-05T12:50:24.681Z,30.67
2018-11-05T12:52:54.469Z,31.50
2018-11-05T12:55:23.435Z,30.97
2018-11-05T12:57:52.356Z,31.03
2018-11-05T13:00:22.769Z,29.20
2018-11-05T13:02:58.207Z,32.03
2018-11-05T13:05:27.990Z,29.93
2018-11-05T13:07:56.856Z,31.07
2018-11-05T13:10:25.933Z,31.37
2018-11-05T13:12:54.904Z,33.27
2018-11-05T13:15:23.947Z,32.93
2018-11-05T13:17:52.813Z,31.60
2018-11-05T13:20:22.788Z,31.47
2018-11-05T13:22:51.832Z,33.90
2018-11-05T13:25:20.784Z,32.80
2018-11-05T13:27:50.432Z,32.27
2018-11-05T13:30:19.354Z,31.87
2018-11-05T13:32:48.255Z,33.00
2018-11-05T13:35:18.388Z,30.63
2018-11-05T13:37:47.791Z,31.70
2018-11-05T13:40:24.145Z,32.87
2018-11-05T13:42:53.039Z,34.13
2018-11-05T13:45:22.500Z,33.87
2018-11-05T13:47:51.545Z,34.00
2018-11-05T13:50:20.125Z,31.87
2018-11-05T13:52:48.958Z,36.10
2018-11-05T13:55:17.930Z,36.57
2018-11-05T13:57:47.916Z,37.90
2018-11-05T14:00:18.054Z,34.93
2018-11-05T14:02:47.496Z,44.30
2018-11-05T14:05:16.579Z,42.93
2018-11-05T14:07:45.652Z,41.33
2018-11-05T14:10:17.980Z,41.50
2018-11-05T14:12:47.376Z,49.67
2018-11-05T14:15:16.317Z,65.87
2018-11-05T14:17:46.806Z,52.27
2018-11-05T14:20:17.125Z,39.80
2018-11-05T14:22:46.008Z,62.53
2018-11-05T14:25:16.242Z,72.47
2018-11-05T14:27:46.685Z,75.87
2018-11-05T14:30:15.706Z,39.87
2018-11-05T14:32:45.755Z,45.50
2018-11-05T14:35:14.837Z,47.00
2018-11-05T14:37:43.692Z,54.07
2018-11-05T14:40:14.191Z,43.53
2018-11-05T14:42:43.165Z,68.70
2018-11-05T14:45:20.004Z,39.63
2018-11-05T14:47:51.828Z,38.97
2018-11-05T14:50:22.325Z,41.07
2018-11-05T14:52:51.982Z,47.30
2018-11-05T14:55:21.096Z,59.73
2018-11-05T14:57:51.053Z,43.20
2018-11-05T15:00:23.575Z,46.13
2018-11-05T15:02:52.587Z,43.03
2018-11-05T15:05:21.524Z,46.17
2018-11-05T15:07:50.824Z,47.23
2018-11-05T15:10:21.083Z,44.33
2018-11-05T15:12:50.015Z,47.77
2018-11-05T15:15:19.643Z,42.53
2018-11-05T15:17:48.691Z,42.33
2018-11-05T15:20:19.776Z,49.43
2018-11-05T15:22:48.490Z,44.00
2018-11-05T15:25:17.699Z,36.97
2018-11-05T15:27:46.641Z,38.57
2018-11-05T15:30:17.482Z,41.10
2018-11-05T15:32:46.653Z,44.40
2018-11-05T15:35:15.813Z,38.30
2018-11-05T15:37:45.071Z,42.53
2018-11-05T15:40:15.060Z,38.87
2018-11-05T15:42:44.320Z,40.57
2018-11-05T15:45:15.461Z,37.97
2018-11-05T15:47:44.405Z,46.80
2018-11-05T15:50:14.613Z,48.03
2018-11-05T15:52:43.895Z,40.37
2018-11-05T15:55:12.678Z,41.07
2018-11-05T15:57:41.682Z,37.50
2018-11-05T16:00:28.054Z,37.97
2018-11-05T16:02:59.252Z,52.20
2018-11-05T16:05:28.444Z,42.87
2018-11-05T16:07:57.496Z,39.37
2018-11-05T16:10:26.348Z,36.13
2018-11-05T16:12:55.245Z,44.67
2018-11-05T16:15:24.775Z,41.30
2018-11-05T16:17:53.706Z,42.40
2018-11-05T16:20:23.194Z,37.40
2018-11-05T16:22:52.948Z,37.57
2018-11-05T16:25:21.783Z,44.97
2018-11-05T16:27:50.661Z,42.57
2018-11-05T16:30:20.839Z,48.03
2018-11-05T16:32:50.544Z,66.13
2018-11-05T16:35:19.579Z,42.87
2018-11-05T16:37:48.493Z,56.07
2018-11-05T16:40:18.182Z,35.77
2018-11-05T16:42:48.266Z,40.53
2018-11-05T16:45:17.207Z,40.17
2018-11-05T16:47:46.309Z,50.70
2018-11-05T16:50:22.326Z,60.50
2018-11-05T16:52:51.226Z,60.33
2018-11-05T16:55:20.283Z,51.80
2018-11-05T16:57:49.206Z,36.83
2018-11-05T17:00:18.358Z,40.07
2018-11-05T17:02:48.060Z,34.20
2018-11-05T17:05:17.175Z,37.93
2018-11-05T17:07:46.049Z,36.87
2018-11-05T17:10:15.317Z,32.27
2018-11-05T17:12:44.813Z,32.33
2018-11-05T17:15:15.096Z,34.47
2018-11-05T17:17:44.320Z,34.43
2018-11-05T17:20:17.132Z,35.33
2018-11-05T17:22:46.004Z,31.97
2018-11-05T17:25:15.438Z,34.27
2018-11-05T17:27:45.041Z,34.23
2018-11-05T17:30:17.017Z,34.47
2018-11-05T17:32:45.919Z,32.83
2018-11-05T17:35:15.272Z,33.70
2018-11-05T17:37:44.649Z,34.30
2018-11-05T17:40:15.009Z,34.47
2018-11-05T17:42:43.951Z,32.80
2018-11-05T17:45:18.193Z,34.50
2018-11-05T17:47:47.750Z,34.87
2018-11-05T17:50:18.064Z,34.13
2018-11-05T17:52:47.016Z,35.60
2018-11-05T17:55:16.125Z,35.60
2018-11-05T17:57:46.285Z,36.33
2018-11-05T18:00:16.576Z,38.27
2018-11-05T18:02:45.470Z,36.13
2018-11-05T18:05:14.815Z,35.93
2018-11-05T18:07:44.017Z,35.13
2018-11-05T18:10:12.970Z,37.17
2018-11-05T18:12:41.886Z,36.43
2018-11-05T18:15:11.868Z,37.70
2018-11-05T18:17:42.052Z,37.47
2018-11-05T18:20:12.457Z,36.13
2018-11-05T18:22:41.453Z,38.00
2018-11-05T18:25:12.884Z,38.50
2018-11-05T18:27:44.206Z,37.40
2018-11-05T18:30:13.844Z,38.20
2018-11-05T18:32:42.754Z,39.07
2018-11-05T18:35:13.102Z,41.17
2018-11-05T18:37:43.782Z,38.60
2018-11-05T18:40:14.169Z,40.67
2018-11-05T18:42:43.599Z,41.97
2018-11-05T18:45:14.798Z,42.60
2018-11-05T18:47:43.817Z,43.43
2018-11-05T18:50:14.970Z,43.80
2018-11-05T18:52:44.205Z,44.70
2018-11-05T18:55:14.605Z,42.50
2018-11-05T18:57:43.554Z,46.67
2018-11-05T19:00:23.356Z,43.70
2018-11-05T19:02:53.049Z,44.30
2018-11-05T19:05:23.142Z,44.80
2018-11-05T19:07:52.090Z,43.53
2018-11-05T19:10:21.211Z,45.57
2018-11-05T19:12:50.897Z,45.27
2018-11-05T19:15:19.864Z,46.53
2018-11-05T19:17:49.297Z,46.70
2018-11-05T19:20:18.553Z,46.37
2018-11-05T19:22:47.642Z,47.80
2018-11-05T19:25:17.085Z,47.47
2018-11-05T19:27:45.938Z,48.63
2018-11-05T19:30:18.675Z,45.77
2018-11-05T19:32:47.560Z,48.63
2018-11-05T19:35:16.559Z,47.63
2018-11-05T19:37:45.440Z,46.93
2018-11-05T19:40:15.215Z,47.23
2018-11-05T19:42:45.228Z,46.93
2018-11-05T19:45:16.213Z,48.80
2018-11-05T19:47:45.075Z,51.50
2018-11-05T19:50:17.195Z,59.93
2018-11-05T19:52:46.949Z,63.17
2018-11-05T19:55:16.430Z,63.27
2018-11-05T19:57:46.139Z,59.27
2018-11-05T20:00:23.976Z,59.67
2018-11-05T20:02:53.209Z,55.17
2018-11-05T20:05:22.204Z,60.17
2018-11-05T20:07:51.761Z,98.33
2018-11-05T20:10:20.690Z,64.63
2018-11-05T20:12:49.582Z,87.83
2018-11-05T20:15:18.843Z,63.73
2018-11-05T20:17:48.604Z,54.07
2018-11-05T20:20:18.871Z,55.87
2018-11-05T20:22:47.906Z,50.73
2018-11-05T20:25:17.098Z,53.33
2018-11-05T20:27:46.047Z,51.33
2018-11-05T20:30:19.552Z,55.70
2018-11-05T20:32:49.776Z,53.63
2018-11-05T20:35:18.370Z,51.50
2018-11-05T20:37:47.289Z,50.33
2018-11-05T20:40:17.366Z,51.30
2018-11-05T20:42:47.751Z,49.10
2018-11-05T20:45:22.615Z,49.23
2018-11-05T20:47:51.579Z,52.27
2018-11-05T20:50:20.564Z,49.57
2018-11-05T20:52:49.475Z,49.30
2018-11-05T20:55:18.648Z,50.20
2018-11-05T20:57:47.677Z,50.03
2018-11-05T21:00:18.407Z,48.10
2018-11-05T21:02:47.374Z,48.70
2018-11-05T21:05:16.285Z,47.70
2018-11-05T21:07:45.302Z,49.27
2018-11-05T21:10:14.873Z,48.30
2018-11-05T21:12:44.264Z,48.07
2018-11-05T21:15:17.498Z,50.30
2018-11-05T21:17:47.713Z,49.10
2018-11-05T21:20:16.799Z,49.83
2018-11-05T21:22:46.338Z,51.07
2018-11-05T21:25:15.130Z,51.97
2018-11-05T21:27:44.381Z,50.53
2018-11-05T21:30:15.811Z,50.70
2018-11-05T21:32:44.750Z,50.17
2018-11-05T21:35:15.274Z,51.83
2018-11-05T21:37:44.674Z,48.87
2018-11-05T21:40:15.002Z,47.40
2018-11-05T21:42:43.996Z,52.93
2018-11-05T21:45:15.406Z,49.57
2018-11-05T21:47:44.978Z,48.73
2018-11-05T21:50:15.883Z,49.43
2018-11-05T21:52:45.277Z,51.60
2018-11-05T21:55:14.243Z,48.47
2018-11-05T21:57:44.581Z,49.33
2018-11-05T22:00:18.524Z,49.87
2018-11-05T22:02:52.930Z,48.57
2018-11-05T22:05:21.910Z,49.37
2018-11-05T22:07:50.751Z,49.33
2018-11-05T22:10:19.661Z,49.67
2018-11-05T22:12:48.634Z,50.70
2018-11-05T22:15:17.848Z,50.80
2018-11-05T22:17:46.953Z,49.40
2018-11-05T22:20:15.861Z,50.33
2018-11-05T22:22:44.769Z,48.40
2018-11-05T22:25:13.568Z,51.10
2018-11-05T22:27:43.163Z,48.67
2018-11-05T22:30:12.781Z,52.07
2018-11-05T22:32:41.682Z,50.27
2018-11-05T22:35:11.641Z,48.87
2018-11-05T22:37:40.616Z,50.37
2018-11-05T22:40:12.362Z,50.63
2018-11-05T22:42:41.787Z,50.40
2018-11-05T22:45:14.692Z,52.33
2018-11-05T22:47:44.576Z,53.47
2018-11-05T22:50:13.470Z,52.13
2018-11-05T22:52:42.765Z,49.80
2018-11-05T22:55:11.655Z,49.70
2018-11-05T22:57:40.697Z,52.00
2018-11-05T23:00:21.063Z,50.63
2018-11-05T23:02:55.544Z,51.17
2018-11-05T23:05:24.493Z,51.77
2018-11-05T23:07:54.449Z,50.77
2018-11-05T23:10:23.340Z,51.00
2018-11-05T23:12:52.269Z,49.43
2018-11-05T23:15:21.321Z,50.23
2018-11-05T23:17:50.725Z,49.53
2018-11-05T23:20:19.675Z,49.10
2018-11-05T23:22:48.501Z,49.37
2018-11-05T23:25:17.547Z,48.67
2018-11-05T23:27:46.413Z,48.80
2018-11-05T23:30:15.332Z,51.83
2018-11-05T23:32:44.248Z,53.10
2018-11-05T23:35:13.154Z,50.77
2018-11-05T23:37:42.104Z,54.00
2018-11-05T23:40:11.161Z,52.27
2018-11-05T23:42:40.232Z,50.73
2018-11-05T23:45:12.265Z,50.73
2018-11-05T23:47:41.340Z,50.27
2018-11-05T23:50:10.867Z,52.27
2018-11-05T23:52:40.156Z,49.67
2018-11-05T23:55:10.352Z,53.07
2018-11-05T23:57:39.253Z,51.23
